Time;durP1;ratioP1;P1;durP2;ratioP2;P2;SDS_P1;SDS_P2;PMS_P1;PMS_P2;Temp;Humidity;BMP_temperature;BMP_pressure;BME280_temperature;BME280_humidity;BME280_pressure;Samples;Min_cycle;Max_cycle;Signal;HPM_P1;HPM_P2
2021/12/28 00:01:32;;;;;;;2.92;2.20;;;22.00;42.30;;;;;;5017281;28;20045;-59
2021/12/28 00:03:58;;;;;;;2.95;2.38;;;22.00;42.30;;;;;;5012967;28;20489;-60
2021/12/28 00:06:24;;;;;;;3.13;2.20;;;22.00;42.30;;;;;;5018547;28;29321;-58
2021/12/28 00:08:50;;;;;;;2.30;2.10;;;22.00;42.30;;;;;;5011810;28;20169;-59
2021/12/28 00:11:16;;;;;;;2.55;2.25;;;22.00;42.30;;;;;;5016494;28;20072;-59
2021/12/28 00:13:44;;;;;;;4.47;2.25;;;21.90;42.20;;;;;;5012031;28;20119;-58
2021/12/28 00:16:28;;;;;;;2.35;2.10;;;21.90;42.30;;;;;;5014690;28;20524;-58
2021/12/28 00:18:53;;;;;;;2.00;1.90;;;21.90;42.30;;;;;;5014620;28;20425;-58
2021/12/28 00:21:19;;;;;;;2.50;2.22;;;21.90;42.30;;;;;;5015897;28;20037;-58
2021/12/28 00:23:44;;;;;;;2.58;2.20;;;21.90;43.00;;;;;;5013705;28;20052;-59
2021/12/28 00:26:13;;;;;;;2.65;2.22;;;21.80;42.30;;;;;;5015707;28;20421;-59
2021/12/28 00:28:40;;;;;;;2.60;2.40;;;21.80;42.30;;;;;;5012490;28;20046;-58
2021/12/28 00:31:06;;;;;;;2.63;2.42;;;21.80;42.30;;;;;;5015242;28;20041;-59
2021/12/28 00:33:31;;;;;;;2.30;2.10;;;21.80;42.30;;;;;;5012393;28;20048;-59
2021/12/28 00:35:57;;;;;;;2.65;2.45;;;21.80;42.30;;;;;;5014615;28;27376;-59
2021/12/28 00:38:25;;;;;;;3.50;2.50;;;21.80;42.30;;;;;;5012386;28;20136;-59
2021/12/28 00:40:55;;;;;;;3.00;2.80;;;21.80;42.30;;;;;;5014407;28;20136;-59
2021/12/28 00:43:21;;;;;;;4.13;2.55;;;21.70;42.30;;;;;;5010718;28;20041;-60
2021/12/28 00:45:48;;;;;;;2.83;2.53;;;21.70;42.30;;;;;;5014597;28;20069;-59
2021/12/28 00:48:14;;;;;;;2.25;2.03;;;21.70;42.40;;;;;;5014168;28;20052;-59
2021/12/28 00:50:41;;;;;;;5.40;2.67;;;21.70;42.30;;;;;;5013216;28;27057;-58
2021/12/28 00:53:07;;;;;;;2.88;2.30;;;21.70;42.30;;;;;;5010821;28;20553;-59
2021/12/28 00:55:33;;;;;;;2.92;2.40;;;21.70;42.40;;;;;;5014766;28;20045;-60
2021/12/28 00:57:59;;;;;;;2.85;2.38;;;21.70;42.40;;;;;;5011176;28;20072;-59
2021/12/28 01:00:30;;;;;;;4.40;2.55;;;21.60;42.30;;;;;;5015041;28;20532;-59
2021/12/28 01:02:58;;;;;;;7.78;2.88;;;21.60;42.30;;;;;;5013856;28;29060;-58
2021/12/28 01:05:25;;;;;;;26.70;4.40;;;21.60;42.40;;;;;;5013642;28;20045;-58
2021/12/28 01:07:51;;;;;;;27.45;4.15;;;21.60;42.30;;;;;;5010503;28;20107;-59
2021/12/28 01:10:22;;;;;;;12.27;3.35;;;21.60;42.30;;;;;;5014780;28;20038;-59
2021/12/28 01:12:52;;;;;;;13.45;3.00;;;21.60;42.40;;;;;;5011559;28;20303;-59
2021/12/28 01:15:19;;;;;;;8.73;2.90;;;21.60;42.50;;;;;;5015336;28;20103;-58
2021/12/28 01:17:45;;;;;;;12.05;4.00;;;21.50;42.40;;;;;;5012398;28;29155;-58
2021/12/28 01:20:12;;;;;;;9.48;2.90;;;21.50;42.40;;;;;;5012332;28;20072;-59
2021/12/28 01:22:38;;;;;;;9.55;3.00;;;21.50;42.50;;;;;;5012063;28;21626;-59
2021/12/28 01:25:05;;;;;;;8.02;3.72;;;21.50;42.50;;;;;;5014190;28;20033;-59
2021/12/28 01:27:31;;;;;;;6.65;2.50;;;21.50;42.50;;;;;;5011316;28;20042;-59
2021/12/28 01:29:56;;;;;;;7.05;3.00;;;21.50;42.60;;;;;;5016004;28;20033;-60
2021/12/28 01:32:22;;;;;;;5.32;2.85;;;21.50;42.60;;;;;;5010609;28;25476;-59
2021/12/28 01:34:48;;;;;;;8.95;3.53;;;21.50;42.70;;;;;;5015170;28;20084;-59
2021/12/28 01:37:13;;;;;;;7.32;2.90;;;21.50;42.70;;;;;;5012812;28;20041;-58
2021/12/28 01:39:39;;;;;;;5.63;2.70;;;21.50;42.70;;;;;;5013548;28;20543;-59
2021/12/28 01:42:07;;;;;;;4.38;2.70;;;21.50;42.80;;;;;;5012376;28;20413;-60
2021/12/28 01:44:33;;;;;;;2.97;2.72;;;21.50;42.90;;;;;;5015578;28;20054;-59
2021/12/28 01:46:59;;;;;;;5.78;3.10;;;21.50;42.80;;;;;;5011926;28;27299;-58
2021/12/28 01:49:25;;;;;;;9.35;2.90;;;21.50;42.90;;;;;;5020429;28;20152;-59
2021/12/28 01:51:51;;;;;;;18.30;4.07;;;21.50;42.90;;;;;;5017083;28;20465;-59
2021/12/28 01:54:17;;;;;;;18.42;3.72;;;21.50;42.90;;;;;;5016747;28;20575;-60
2021/12/28 01:56:46;;;;;;;15.73;3.88;;;21.40;42.90;;;;;;5015116;28;20088;-59
2021/12/28 01:59:18;;;;;;;17.90;3.65;;;21.40;42.90;;;;;;5014092;28;20049;-59
2021/12/28 02:01:44;;;;;;;8.65;3.63;;;21.40;43.00;;;;;;5015151;28;20132;-60
2021/12/28 02:04:22;;;;;;;9.27;3.08;;;21.40;43.00;;;;;;5017255;28;20441;-60
2021/12/28 02:06:49;;;;;;;7.22;3.28;;;21.40;43.00;;;;;;5017469;28;20847;-59
2021/12/28 02:09:16;;;;;;;6.65;2.80;;;21.40;43.00;;;;;;5017321;28;20048;-60
2021/12/28 02:11:42;;;;;;;8.45;3.13;;;21.40;43.00;;;;;;5017765;28;20085;-60
2021/12/28 02:14:09;;;;;;;8.18;3.03;;;21.40;43.00;;;;;;5016327;28;27050;-59
2021/12/28 02:16:36;;;;;;;3.92;2.97;;;21.30;43.00;;;;;;5017400;28;20060;-59
2021/12/28 02:19:04;;;;;;;8.85;3.42;;;21.30;43.00;;;;;;5017785;28;20099;-59
2021/12/28 02:21:32;;;;;;;7.20;3.17;;;21.30;43.00;;;;;;5017045;28;20401;-59
2021/12/28 02:24:00;;;;;;;7.68;3.00;;;21.30;43.00;;;;;;5034205;28;20041;-59
2021/12/28 02:26:27;;;;;;;5.38;2.63;;;21.30;43.00;;;;;;5015156;28;20041;-58
2021/12/28 02:28:52;;;;;;;6.70;3.13;;;21.30;43.00;;;;;;5013274;28;20188;-59
2021/12/28 02:31:18;;;;;;;7.55;2.47;;;21.30;43.00;;;;;;5016161;28;20049;-60
2021/12/28 02:33:46;;;;;;;9.18;3.30;;;21.30;43.00;;;;;;5018100;28;20669;-60
2021/12/28 02:36:12;;;;;;;7.60;3.28;;;21.30;43.00;;;;;;5043708;28;20172;-60
2021/12/28 02:38:38;;;;;;;4.30;2.75;;;21.30;43.00;;;;;;5017615;28;20045;-59
2021/12/28 02:41:04;;;;;;;5.13;2.75;;;21.20;42.90;;;;;;5017067;28;28749;-59
2021/12/28 02:43:30;;;;;;;3.95;2.60;;;21.30;43.10;;;;;;5017655;28;20041;-59
2021/12/28 02:45:59;;;;;;;7.55;2.97;;;21.20;43.00;;;;;;5013520;28;20040;-59
2021/12/28 02:48:26;;;;;;;2.88;2.67;;;21.20;43.00;;;;;;5018341;28;20072;-58
2021/12/28 02:50:55;;;;;;;4.90;2.60;;;21.20;43.00;;;;;;5015315;28;20107;-59
2021/12/28 02:53:22;;;;;;;5.60;2.80;;;21.20;43.00;;;;;;5016587;28;20673;-58
2021/12/28 02:55:48;;;;;;;6.47;2.97;;;21.20;43.00;;;;;;5012932;28;26962;-58
2021/12/28 02:58:31;;;;;;;6.78;3.15;;;21.20;43.00;;;;;;5017368;28;20789;-59
2021/12/28 03:01:14;;;;;;;5.20;3.03;;;21.20;43.00;;;;;;5008130;28;20048;-59
2021/12/28 03:03:40;;;;;;;2.75;2.53;;;21.20;43.00;;;;;;5011938;28;20159;-59
2021/12/28 03:06:08;;;;;;;3.15;2.60;;;21.20;43.00;;;;;;5015378;28;20386;-59
2021/12/28 03:08:37;;;;;;;5.78;2.80;;;21.20;43.00;;;;;;5014628;28;20037;-58
2021/12/28 03:11:04;;;;;;;4.88;2.70;;;21.20;43.00;;;;;;5027983;28;28504;-59
2021/12/28 03:13:42;;;;;;;5.43;3.00;;;21.20;43.00;;;;;;5017910;28;20540;-58
2021/12/28 03:16:09;;;;;;;4.63;2.78;;;21.20;43.00;;;;;;5014948;28;20155;-60
2021/12/28 03:18:35;;;;;;;5.00;2.75;;;21.20;43.10;;;;;;5016289;28;20068;-61
2021/12/28 03:21:03;;;;;;;3.47;3.08;;;21.10;43.00;;;;;;5012018;28;20046;-59
2021/12/28 03:23:29;;;;;;;2.97;2.67;;;21.10;43.00;;;;;;5013515;28;20436;-58
2021/12/28 03:25:55;;;;;;;4.05;2.75;;;21.10;43.00;;;;;;5015798;28;20038;-59
2021/12/28 03:28:26;;;;;;;2.60;2.40;;;21.10;43.00;;;;;;5013952;28;20033;-60
2021/12/28 03:30:54;;;;;;;4.45;3.63;;;21.10;43.00;;;;;;5014913;28;20493;-59
2021/12/28 03:33:25;;;;;;;3.13;2.78;;;21.10;43.00;;;;;;5018540;28;20038;-58
2021/12/28 03:35:51;;;;;;;3.50;2.95;;;21.10;43.00;;;;;;5015352;28;20041;-58
2021/12/28 03:38:17;;;;;;;3.05;2.50;;;21.10;43.00;;;;;;5012551;28;22643;-60
2021/12/28 03:40:43;;;;;;;3.40;2.55;;;21.10;43.00;;;;;;5015589;28;20111;-58
2021/12/28 03:43:09;;;;;;;3.60;2.40;;;21.10;43.00;;;;;;5015077;28;20355;-60
2021/12/28 03:45:35;;;;;;;3.10;2.75;;;21.10;43.00;;;;;;5014993;28;20041;-58
2021/12/28 03:48:00;;;;;;;4.20;2.60;;;21.00;43.00;;;;;;5013584;28;20037;-58
2021/12/28 03:50:26;;;;;;;4.05;2.97;;;21.10;43.00;;;;;;5016255;28;20041;-59
2021/12/28 03:52:55;;;;;;;4.68;2.55;;;21.00;42.90;;;;;;5014188;28;27179;-61
2021/12/28 03:55:23;;;;;;;3.70;2.83;;;21.00;43.00;;;;;;5016749;28;20056;-61
2021/12/28 03:57:50;;;;;;;3.38;2.70;;;21.00;42.90;;;;;;5013667;28;20038;-59
2021/12/28 04:00:18;;;;;;;3.58;3.10;;;21.00;42.90;;;;;;5027793;28;20609;-58
2021/12/28 04:02:44;;;;;;;3.30;2.70;;;21.00;42.90;;;;;;5014358;28;20052;-58
2021/12/28 04:05:12;;;;;;;3.53;2.20;;;21.00;42.90;;;;;;5016010;28;20155;-58
2021/12/28 04:07:39;;;;;;;4.32;2.70;;;21.00;42.80;;;;;;5012685;28;25041;-60
2021/12/28 04:10:08;;;;;;;3.60;2.63;;;21.00;42.80;;;;;;5027178;28;20128;-59
2021/12/28 04:12:34;;;;;;;2.95;2.65;;;21.00;43.40;;;;;;5027494;28;20049;-58
2021/12/28 04:15:00;;;;;;;3.50;2.85;;;20.90;42.80;;;;;;5014407;28;20054;-60
2021/12/28 04:17:27;;;;;;;2.78;2.20;;;20.90;42.80;;;;;;5014513;28;20056;-58
2021/12/28 04:19:53;;;;;;;5.00;2.67;;;20.90;42.80;;;;;;5012289;28;28748;-58
2021/12/28 04:22:19;;;;;;;3.28;2.35;;;20.90;42.80;;;;;;5014660;28;20038;-59
2021/12/28 04:24:46;;;;;;;2.83;2.63;;;20.90;42.80;;;;;;5011829;28;20026;-58
2021/12/28 04:27:11;;;;;;;3.85;2.85;;;20.90;42.80;;;;;;5014955;28;20045;-60
2021/12/28 04:29:37;;;;;;;4.03;2.50;;;20.90;42.80;;;;;;5012453;28;20042;-60
2021/12/28 04:32:03;;;;;;;4.72;3.00;;;20.90;42.80;;;;;;5026427;28;20038;-59
2021/12/28 04:34:29;;;;;;;2.88;2.47;;;20.90;42.80;;;;;;5011441;28;29160;-58
2021/12/28 04:36:54;;;;;;;3.72;2.47;;;20.90;42.80;;;;;;5016507;28;20048;-57
2021/12/28 04:39:20;;;;;;;3.53;2.80;;;20.90;42.80;;;;;;5011188;28;20420;-58
2021/12/28 04:41:45;;;;;;;7.35;2.47;;;20.90;42.80;;;;;;5015232;28;20033;-59
2021/12/28 04:44:13;;;;;;;3.30;2.63;;;20.90;42.80;;;;;;5014914;28;20052;-59
2021/12/28 04:46:39;;;;;;;3.25;2.60;;;20.90;42.80;;;;;;5015724;28;20045;-60
2021/12/28 04:49:05;;;;;;;2.88;2.33;;;20.80;42.70;;;;;;5010182;28;20064;-58
2021/12/28 04:51:31;;;;;;;2.90;2.42;;;20.80;42.70;;;;;;5014721;28;20382;-58
2021/12/28 04:53:59;;;;;;;6.22;2.53;;;20.80;42.70;;;;;;5012863;28;20043;-59
2021/12/28 04:56:25;;;;;;;2.75;2.13;;;20.80;42.80;;;;;;5014376;28;20041;-59
2021/12/28 04:58:50;;;;;;;2.95;2.40;;;20.80;42.70;;;;;;5014071;28;20049;-58
2021/12/28 05:01:16;;;;;;;3.33;2.30;;;20.80;42.70;;;;;;5008729;28;20037;-59
2021/12/28 05:03:41;;;;;;;2.22;2.10;;;20.80;42.80;;;;;;5006409;28;20481;-59
2021/12/28 05:06:07;;;;;;;3.35;2.30;;;20.80;42.70;;;;;;5009825;28;20156;-59
2021/12/28 05:08:33;;;;;;;3.63;2.55;;;20.80;42.80;;;;;;5011885;28;20116;-60
2021/12/28 05:10:59;;;;;;;3.28;2.35;;;20.80;42.80;;;;;;5012084;28;20044;-59
2021/12/28 05:13:24;;;;;;;3.55;2.42;;;20.80;42.80;;;;;;5015582;28;20489;-59
2021/12/28 05:15:52;;;;;;;2.65;2.35;;;20.80;42.80;;;;;;5012041;28;24902;-58
2021/12/28 05:18:19;;;;;;;3.40;2.13;;;20.70;42.70;;;;;;5012979;28;20056;-59
2021/12/28 05:20:45;;;;;;;2.83;2.20;;;20.70;42.90;;;;;;5024750;28;20858;-59
2021/12/28 05:23:11;;;;;;;3.22;2.03;;;20.70;42.70;;;;;;5042742;28;20374;-58
2021/12/28 05:25:37;;;;;;;2.75;2.40;;;20.70;42.70;;;;;;5013235;28;20061;-59
2021/12/28 05:28:03;;;;;;;2.45;2.25;;;20.70;42.70;;;;;;5013741;28;20096;-59
2021/12/28 05:30:29;;;;;;;2.45;2.25;;;20.70;42.70;;;;;;5009999;28;20045;-59
2021/12/28 05:32:55;;;;;;;3.10;2.08;;;20.70;42.70;;;;;;5016560;28;20075;-58
2021/12/28 05:35:20;;;;;;;2.05;1.90;;;20.70;42.70;;;;;;5013557;28;20053;-58
2021/12/28 05:37:46;;;;;;;3.17;2.30;;;20.70;42.80;;;;;;5011534;28;20384;-57
2021/12/28 05:40:13;;;;;;;2.85;2.33;;;20.70;42.80;;;;;;5016707;28;20080;-59
2021/12/28 05:42:38;;;;;;;3.20;2.40;;;20.70;42.80;;;;;;5012047;28;20544;-58
2021/12/28 05:45:05;;;;;;;1.88;1.77;;;20.70;42.80;;;;;;5012750;28;28850;-60
2021/12/28 05:47:31;;;;;;;3.03;2.20;;;20.70;42.80;;;;;;5013607;28;20037;-56
2021/12/28 05:49:57;;;;;;;2.13;1.85;;;20.60;42.80;;;;;;5015087;28;20487;-57
2021/12/28 05:52:23;;;;;;;2.50;2.05;;;20.70;42.80;;;;;;5013065;28;20038;-56
2021/12/28 05:54:49;;;;;;;3.00;2.15;;;20.60;42.80;;;;;;5012604;28;20041;-57
2021/12/28 05:57:14;;;;;;;2.60;1.95;;;20.60;42.90;;;;;;5015727;28;20103;-58
2021/12/28 05:59:40;;;;;;;2.80;2.00;;;20.60;42.90;;;;;;5008320;28;27838;-58
2021/12/28 06:02:07;;;;;;;3.22;2.13;;;20.60;42.90;;;;;;5013823;28;20076;-57
2021/12/28 06:04:33;;;;;;;2.45;1.92;;;20.60;42.90;;;;;;5013070;28;20095;-57
2021/12/28 06:06:58;;;;;;;3.83;2.05;;;20.60;42.90;;;;;;5012199;28;20037;-58
2021/12/28 06:09:24;;;;;;;2.33;2.03;;;20.60;42.90;;;;;;5015333;28;20139;-57
2021/12/28 06:11:50;;;;;;;1.80;1.33;;;20.60;43.00;;;;;;5010143;28;20075;-57
2021/12/28 06:14:15;;;;;;;3.60;2.20;;;20.60;42.90;;;;;;5014375;28;20033;-58
2021/12/28 06:16:42;;;;;;;2.53;1.85;;;20.60;42.90;;;;;;5012905;28;20053;-57
2021/12/28 06:19:07;;;;;;;2.17;1.98;;;20.60;43.00;;;;;;5012834;28;20065;-58
2021/12/28 06:21:35;;;;;;;3.30;1.75;;;20.60;43.00;;;;;;5013882;28;20108;-58
2021/12/28 06:24:01;;;;;;;2.22;1.75;;;20.60;43.00;;;;;;5015254;28;20041;-59
2021/12/28 06:26:28;;;;;;;3.28;1.92;;;20.60;43.00;;;;;;5012289;28;27383;-57
2021/12/28 06:28:54;;;;;;;2.25;1.70;;;20.60;42.90;;;;;;5011296;28;20125;-59
2021/12/28 06:31:19;;;;;;;3.03;1.95;;;20.60;43.00;;;;;;5012560;28;20808;-59
2021/12/28 06:33:45;;;;;;;3.75;1.70;;;20.60;43.00;;;;;;5015481;28;21539;-58
2021/12/28 06:36:11;;;;;;;3.08;1.75;;;20.60;43.00;;;;;;5016896;28;20053;-57
2021/12/28 06:38:36;;;;;;;3.30;2.00;;;20.60;42.90;;;;;;5015525;28;20095;-58
2021/12/28 06:41:02;;;;;;;3.53;1.52;;;20.60;43.00;;;;;;5015620;28;20045;-57
2021/12/28 06:43:28;;;;;;;3.55;1.67;;;20.60;43.00;;;;;;5018539;28;20116;-59
2021/12/28 06:45:55;;;;;;;2.60;1.60;;;20.60;43.00;;;;;;5017387;28;20103;-59
2021/12/28 06:48:21;;;;;;;3.38;1.90;;;20.70;43.00;;;;;;5014331;28;20091;-59
2021/12/28 06:50:47;;;;;;;3.10;1.45;;;20.60;42.90;;;;;;5016055;28;20056;-58
2021/12/28 06:53:13;;;;;;;2.65;1.50;;;20.60;42.90;;;;;;5016758;28;20041;-57
2021/12/28 06:55:39;;;;;;;1.75;1.30;;;20.70;42.90;;;;;;5015146;28;27777;-57
2021/12/28 06:58:05;;;;;;;2.10;1.30;;;20.70;43.70;;;;;;5014882;28;20088;-58
2021/12/28 07:00:31;;;;;;;3.72;1.58;;;20.70;42.90;;;;;;5017427;28;20056;-58
2021/12/28 07:02:57;;;;;;;2.75;1.70;;;20.70;42.90;;;;;;5013572;28;20052;-58
2021/12/28 07:05:22;;;;;;;2.28;1.52;;;20.70;42.90;;;;;;5016416;28;20474;-58
2021/12/28 07:07:48;;;;;;;3.05;1.40;;;20.70;42.90;;;;;;5016903;28;20495;-58
2021/12/28 07:10:14;;;;;;;4.53;1.70;;;20.70;42.90;;;;;;5014927;28;20037;-58
2021/12/28 07:12:39;;;;;;;2.28;1.38;;;20.70;42.80;;;;;;5019622;28;20042;-57
2021/12/28 07:15:06;;;;;;;2.47;1.58;;;20.70;42.90;;;;;;5029361;28;20057;-58
2021/12/28 07:17:32;;;;;;;2.78;1.40;;;20.70;42.80;;;;;;5017705;28;20069;-58
2021/12/28 07:19:58;;;;;;;2.67;1.27;;;20.70;42.80;;;;;;5015190;28;20548;-58
2021/12/28 07:22:23;;;;;;;5.13;1.67;;;20.70;42.90;;;;;;5018274;28;30178;-57
2021/12/28 07:24:49;;;;;;;3.17;1.60;;;20.70;42.90;;;;;;5016091;28;20065;-57
2021/12/28 07:27:15;;;;;;;3.55;1.27;;;20.70;42.80;;;;;;5014807;28;20037;-59
2021/12/28 07:29:40;;;;;;;2.95;1.23;;;20.80;42.90;;;;;;5018504;28;20471;-59
2021/12/28 07:32:08;;;;;;;3.10;1.63;;;20.70;42.90;;;;;;5015380;28;20454;-58
2021/12/28 07:34:34;;;;;;;1.98;1.30;;;20.80;42.90;;;;;;5016876;28;20038;-57
2021/12/28 07:37:00;;;;;;;3.20;1.60;;;20.80;42.90;;;;;;5013928;28;29727;-59
2021/12/28 07:39:26;;;;;;;2.50;1.30;;;20.80;42.90;;;;;;5012204;28;20045;-59
2021/12/28 07:41:52;;;;;;;2.25;1.25;;;20.80;42.80;;;;;;5014960;28;20045;-57
2021/12/28 07:44:17;;;;;;;2.13;1.38;;;20.80;42.80;;;;;;5011566;28;20519;-57
2021/12/28 07:46:43;;;;;;;3.08;1.55;;;20.80;42.80;;;;;;5018224;28;20046;-58
2021/12/28 07:49:08;;;;;;;2.78;1.27;;;20.80;42.90;;;;;;5013010;28;20069;-58
2021/12/28 07:51:34;;;;;;;3.67;1.27;;;20.90;42.80;;;;;;5015736;28;20048;-57
2021/12/28 07:54:00;;;;;;;3.05;1.60;;;20.80;42.80;;;;;;5014787;28;20029;-58
2021/12/28 07:56:25;;;;;;;3.05;1.52;;;20.90;42.90;;;;;;5014255;28;20219;-58
2021/12/28 07:58:52;;;;;;;2.95;1.30;;;20.90;42.90;;;;;;5014332;28;20509;-58
2021/12/28 08:01:18;;;;;;;1.98;1.40;;;20.90;42.80;;;;;;5013206;28;20042;-59
2021/12/28 08:03:44;;;;;;;2.97;1.25;;;20.90;42.80;;;;;;5014862;28;20052;-59
2021/12/28 08:06:09;;;;;;;1.60;1.08;;;20.90;42.80;;;;;;5013568;28;27071;-58
2021/12/28 08:08:35;;;;;;;2.17;1.38;;;20.90;42.80;;;;;;5016843;28;20041;-59
2021/12/28 08:11:01;;;;;;;3.13;1.45;;;20.90;42.80;;;;;;5016769;28;20689;-57
2021/12/28 08:13:27;;;;;;;2.08;1.23;;;20.90;42.80;;;;;;5014288;28;20056;-59
2021/12/28 08:15:55;;;;;;;1.55;1.23;;;20.90;42.80;;;;;;5015788;28;20100;-57
2021/12/28 08:18:21;;;;;;;2.72;1.38;;;20.90;42.80;;;;;;5012824;28;20468;-58
2021/12/28 08:20:46;;;;;;;2.05;1.20;;;20.90;42.80;;;;;;5015418;28;20049;-59
2021/12/28 08:23:12;;;;;;;1.95;1.35;;;21.00;43.00;;;;;;5013311;28;20128;-58
2021/12/28 08:25:38;;;;;;;2.40;1.17;;;21.00;43.10;;;;;;5012541;28;20466;-59
2021/12/28 08:28:06;;;;;;;3.83;1.60;;;21.00;43.40;;;;;;5015042;28;20041;-57
2021/12/28 08:30:34;;;;;;;4.00;1.40;;;21.00;43.60;;;;;;5014202;28;20109;-58
2021/12/28 08:33:01;;;;;;;2.45;1.30;;;21.00;43.60;;;;;;5013345;28;22314;-57
2021/12/28 08:35:27;;;;;;;5.55;1.40;;;21.00;43.90;;;;;;5012322;28;20033;-59
2021/12/28 08:37:53;;;;;;;3.63;1.27;;;21.00;44.00;;;;;;5015985;28;20552;-59
2021/12/28 08:40:20;;;;;;;3.85;1.33;;;21.00;44.10;;;;;;5014899;28;20444;-58
2021/12/28 08:42:46;;;;;;;2.90;1.20;;;21.10;44.40;;;;;;5013870;28;20096;-58
2021/12/28 08:45:12;;;;;;;4.03;1.20;;;21.10;44.50;;;;;;5013961;28;20749;-58
2021/12/28 08:47:38;;;;;;;4.45;1.55;;;21.10;44.60;;;;;;5009449;28;20063;-57
2021/12/28 08:50:07;;;;;;;7.53;1.50;;;21.10;44.70;;;;;;5027857;28;20478;-59
2021/12/28 08:52:32;;;;;;;3.13;1.75;;;21.10;44.80;;;;;;5011982;28;20124;-59
2021/12/28 08:54:58;;;;;;;2.53;1.48;;;21.10;44.90;;;;;;5012495;28;20679;-57
2021/12/28 08:57:24;;;;;;;5.07;1.38;;;21.10;45.00;;;;;;5011848;28;20135;-58
2021/12/28 08:59:49;;;;;;;3.67;1.00;;;21.20;45.90;;;;;;5013035;28;20156;-58
2021/12/28 09:02:15;;;;;;;3.53;1.52;;;21.20;45.30;;;;;;5012553;28;20195;-58
2021/12/28 09:04:43;;;;;;;3.88;1.40;;;21.20;45.60;;;;;;5011357;28;20094;-58
2021/12/28 09:07:13;;;;;;;4.03;1.48;;;21.20;45.90;;;;;;5012768;28;20037;-58
2021/12/28 09:09:39;;;;;;;5.13;1.50;;;21.20;46.10;;;;;;5010051;28;20127;-57
2021/12/28 09:12:05;;;;;;;4.30;1.20;;;21.20;46.10;;;;;;5012924;28;20146;-58
2021/12/28 09:14:32;;;;;;;3.47;1.15;;;21.30;46.40;;;;;;5012186;28;20045;-59
2021/12/28 09:16:58;;;;;;;6.53;1.77;;;21.30;46.60;;;;;;5012323;28;29241;-58
2021/12/28 09:19:24;;;;;;;5.10;1.40;;;21.30;46.80;;;;;;5010887;28;20445;-59
2021/12/28 09:21:50;;;;;;;4.85;1.60;;;21.30;46.80;;;;;;5011620;28;20045;-58
2021/12/28 09:24:16;;;;;;;6.22;1.40;;;21.30;46.80;;;;;;5014167;28;20045;-57
2021/12/28 09:26:41;;;;;;;4.30;1.30;;;21.30;46.90;;;;;;5013145;28;20809;-58
2021/12/28 09:29:07;;;;;;;3.70;1.55;;;21.40;46.90;;;;;;5010862;28;20127;-59
2021/12/28 09:31:33;;;;;;;2.85;1.38;;;21.40;46.90;;;;;;5011904;28;20055;-58
2021/12/28 09:33:59;;;;;;;3.80;1.48;;;21.40;47.00;;;;;;5013843;28;20045;-58
2021/12/28 09:36:25;;;;;;;5.10;2.35;;;21.40;47.00;;;;;;5011538;28;20073;-57
2021/12/28 09:38:51;;;;;;;7.80;2.28;;;21.40;47.20;;;;;;5011910;28;20042;-59
2021/12/28 09:41:17;;;;;;;8.73;3.15;;;21.40;47.40;;;;;;5014461;28;20046;-58
2021/12/28 09:43:43;;;;;;;10.75;3.60;;;21.40;47.60;;;;;;5011607;28;26943;-58
2021/12/28 09:46:09;;;;;;;11.32;3.08;;;21.50;48.00;;;;;;5008432;28;20045;-58
2021/12/28 09:48:36;;;;;;;11.93;3.63;;;21.50;48.50;;;;;;5014315;28;20030;-58
2021/12/28 09:51:03;;;;;;;9.38;3.75;;;21.50;48.70;;;;;;5014163;28;20048;-58
2021/12/28 09:53:29;;;;;;;10.23;3.22;;;21.50;48.80;;;;;;5013878;28;20042;-58
2021/12/28 09:55:56;;;;;;;6.85;2.97;;;21.50;49.00;;;;;;5013984;28;20037;-58
2021/12/28 09:58:23;;;;;;;8.68;3.58;;;21.50;49.10;;;;;;5013365;28;20164;-59
2021/12/28 10:00:50;;;;;;;8.25;2.85;;;21.60;49.30;;;;;;4997937;28;20046;-58
2021/12/28 10:03:16;;;;;;;8.63;2.90;;;21.60;49.20;;;;;;5014755;28;20049;-59
2021/12/28 10:05:42;;;;;;;7.57;3.20;;;21.60;49.50;;;;;;5010467;28;20047;-59
2021/12/28 10:08:08;;;;;;;7.03;2.67;;;21.60;49.70;;;;;;5015047;28;20669;-58
2021/12/28 10:10:39;;;;;;;8.07;3.05;;;21.60;49.70;;;;;;5012575;28;20033;-58
2021/12/28 10:13:16;;;;;;;6.72;2.78;;;21.60;49.50;;;;;;5016325;28;27363;-59
2021/12/28 10:15:43;;;;;;;11.93;3.20;;;21.70;49.50;;;;;;5014579;28;20115;-59
2021/12/28 10:18:11;;;;;;;7.68;2.80;;;21.60;49.30;;;;;;5013356;28;20080;-58
2021/12/28 10:20:55;;;;;;;9.13;2.60;;;21.70;49.30;;;;;;5010652;28;20176;-58
2021/12/28 10:23:25;;;;;;;7.53;2.65;;;21.70;49.20;;;;;;5013980;28;20140;-58
2021/12/28 10:25:54;;;;;;;6.97;2.55;;;21.70;49.40;;;;;;5012932;28;26089;-58
2021/12/28 10:28:23;;;;;;;11.60;2.88;;;21.70;49.50;;;;;;5016100;28;20645;-58
2021/12/28 10:30:56;;;;;;;7.63;2.63;;;21.70;49.30;;;;;;5014992;28;20083;-59
2021/12/28 10:33:24;;;;;;;7.25;2.60;;;21.70;49.60;;;;;;5045814;28;20056;-59
2021/12/28 10:36:02;;;;;;;8.48;2.80;;;21.70;49.60;;;;;;5012581;28;20119;-59
2021/12/28 10:38:31;;;;;;;16.48;6.85;;;21.70;49.60;;;;;;5015457;28;20048;-59
2021/12/28 10:41:01;;;;;;;14.70;6.43;;;21.70;49.60;;;;;;5012808;28;20090;-58
2021/12/28 10:43:34;;;;;;;10.95;6.32;;;21.80;49.60;;;;;;5006914;28;20073;-59
2021/12/28 10:46:18;;;;;;;19.10;7.78;;;21.80;49.80;;;;;;5014192;28;20713;-58
2021/12/28 10:48:50;;;;;;;18.08;8.13;;;21.80;49.80;;;;;;5013837;28;20382;-59
2021/12/28 10:51:41;;;;;;;20.10;8.43;;;21.80;49.70;;;;;;5015200;28;20120;-58
2021/12/28 10:56:58;;;;;;;24.77;9.48;;;21.80;49.90;;;;;;5012280;28;20200;-59
2021/12/28 10:59:31;;;;;;;24.23;9.77;;;21.80;50.10;;;;;;5015211;28;20045;-60
2021/12/28 11:01:57;;;;;;;22.02;10.27;;;21.80;50.10;;;;;;5014183;28;20037;-59
2021/12/28 11:04:31;;;;;;;26.83;9.38;;;21.70;50.10;;;;;;5014529;28;20108;-59
2021/12/28 11:06:57;;;;;;;26.30;8.93;;;21.80;50.00;;;;;;5014165;28;21107;-58
2021/12/28 11:09:24;;;;;;;26.90;9.70;;;21.80;49.90;;;;;;5012835;28;23079;-58
2021/12/28 11:11:52;;;;;;;20.98;7.85;;;21.80;49.90;;;;;;5016600;28;20101;-58
2021/12/28 11:14:20;;;;;;;26.77;9.05;;;21.80;49.90;;;;;;5015116;28;20041;-59
2021/12/28 11:16:51;;;;;;;23.40;8.80;;;21.80;49.80;;;;;;5030829;28;20056;-59
2021/12/28 11:19:27;;;;;;;24.45;8.93;;;21.80;49.90;;;;;;5016756;28;20103;-59
2021/12/28 11:22:12;;;;;;;21.23;7.80;;;21.80;49.90;;;;;;5014799;28;32704;-59
2021/12/28 11:24:47;;;;;;;21.33;8.18;;;21.80;49.70;;;;;;5018919;28;20029;-58
2021/12/28 11:27:30;;;;;;;17.75;7.07;;;21.80;49.80;;;;;;5013770;28;20041;-58
2021/12/28 11:29:59;;;;;;;16.95;6.85;;;21.80;49.90;;;;;;5015833;28;20033;-58
2021/12/28 11:32:25;;;;;;;21.90;8.00;;;21.80;49.90;;;;;;5016179;28;20120;-59
2021/12/28 11:34:52;;;;;;;21.58;7.47;;;21.70;49.90;;;;;;5016102;28;20056;-60
2021/12/28 11:37:22;;;;;;;19.67;6.82;;;21.70;49.90;;;;;;5001520;28;31541;-60
2021/12/28 11:39:52;;;;;;;17.08;6.43;;;21.80;50.20;;;;;;5014332;28;20065;-60
2021/12/28 11:42:20;;;;;;;19.50;6.22;;;21.80;50.30;;;;;;5005669;28;20049;-60
2021/12/28 11:44:46;;;;;;;19.90;6.45;;;21.80;50.40;;;;;;5011514;28;20421;-66
2021/12/28 11:47:13;;;;;;;16.48;5.72;;;21.80;50.40;;;;;;5013583;28;20775;-57
2021/12/28 11:49:41;;;;;;;15.00;5.82;;;21.80;50.50;;;;;;5011718;28;22042;-57
2021/12/28 11:52:10;;;;;;;14.50;5.43;;;21.80;50.40;;;;;;5011199;28;20060;-60
2021/12/28 11:54:38;;;;;;;13.25;5.50;;;21.70;50.40;;;;;;5012996;28;20045;-58
2021/12/28 11:57:13;;;;;;;12.25;5.07;;;21.80;50.40;;;;;;5013371;28;20045;-59
2021/12/28 11:59:40;;;;;;;16.20;5.47;;;21.80;50.30;;;;;;5011694;28;20053;-59
2021/12/28 12:02:11;;;;;;;13.57;4.90;;;21.80;50.20;;;;;;5011719;28;20083;-58
2021/12/28 12:04:47;;;;;;;13.02;4.28;;;21.80;50.20;;;;;;5008945;28;33485;-60
2021/12/28 12:07:16;;;;;;;10.10;4.07;;;21.80;50.50;;;;;;5011484;28;20133;-61
2021/12/28 12:09:54;;;;;;;9.50;4.43;;;21.70;50.10;;;;;;5011887;28;20085;-58
2021/12/28 12:12:33;;;;;;;14.15;4.50;;;21.80;50.00;;;;;;5013713;28;20092;-58
2021/12/28 12:14:58;;;;;;;11.95;4.47;;;21.80;50.00;;;;;;5012254;28;20072;-60
2021/12/28 12:17:34;;;;;;;12.07;4.30;;;21.70;49.90;;;;;;5013306;28;20041;-60
2021/12/28 12:20:22;;;;;;;12.23;4.45;;;21.80;49.90;;;;;;5010171;28;20049;-60
2021/12/28 12:22:55;;;;;;;9.93;4.10;;;21.70;49.80;;;;;;5011689;28;20052;-60
2021/12/28 12:25:48;;;;;;;10.93;4.10;;;21.80;49.80;;;;;;5026977;28;20088;-59
2021/12/28 12:28:14;;;;;;;12.20;4.25;;;21.70;49.60;;;;;;5012532;28;20049;-60
2021/12/28 12:30:52;;;;;;;12.75;4.05;;;21.70;49.70;;;;;;5014582;28;20037;-60
2021/12/28 12:33:18;;;;;;;11.32;3.60;;;21.70;49.60;;;;;;5009688;28;20058;-60
2021/12/28 12:35:51;;;;;;;11.38;3.63;;;21.70;49.60;;;;;;5015797;28;20045;-59
2021/12/28 12:38:17;;;;;;;6.63;3.25;;;21.70;49.60;;;;;;5011043;28;20041;-61
2021/12/28 12:40:59;;;;;;;10.55;3.55;;;21.70;49.60;;;;;;5015371;28;20053;-59
2021/12/28 12:43:49;;;;;;;7.63;3.28;;;21.70;49.50;;;;;;5014030;28;20033;-59
2021/12/28 12:46:31;;;;;;;8.77;3.30;;;21.70;49.40;;;;;;5006652;28;26975;-59
2021/12/28 12:49:04;;;;;;;8.82;3.30;;;21.70;49.40;;;;;;5045283;28;20292;-59
2021/12/28 12:51:34;;;;;;;7.13;3.00;;;21.70;49.40;;;;;;5013585;28;20073;-60